Time;durP1;ratioP1;P1;durP2;ratioP2;P2;SDS_P1;SDS_P2;PMS_P1;PMS_P2;Temp;Humidity;BMP_temperature;BMP_pressure;BME280_temperature;BME280_humidity;BME280_pressure;Samples;Min_cycle;Max_cycle;Signal;HPM_P1;HPM_P2
2023/10/17 00:02:53;;;;;;;8.30;4.70;;;;;;;;;;6062063;23;20179;-93
2023/10/17 00:05:58;;;;;;;11.07;4.53;;;;;;;;;;6062029;23;20211;-93
2023/10/17 00:09:07;;;;;;;7.03;4.03;;;;;;;;;;6062088;23;20249;-91
2023/10/17 00:12:25;;;;;;;7.53;3.80;;;;;;;;;;6077859;23;20171;-91
2023/10/17 00:15:35;;;;;;;9.30;5.30;;;;;;;;;;6061479;23;20182;-92
2023/10/17 00:18:40;;;;;;;11.80;5.50;;;;;;;;;;6061243;23;20539;-91
2023/10/17 00:21:46;;;;;;;10.23;5.27;;;;;;;;;;6063587;23;20175;-92
2023/10/17 00:24:55;;;;;;;9.80;5.00;;;;;;;;;;6060046;23;20182;-91
2023/10/17 00:28:00;;;;;;;10.33;5.17;;;;;;;;;;6058939;23;20320;-92
2023/10/17 00:31:07;;;;;;;8.63;4.70;;;;;;;;;;6059383;23;20171;-91
2023/10/17 00:34:15;;;;;;;12.27;4.80;;;;;;;;;;6059645;23;20234;-91
2023/10/17 00:37:30;;;;;;;10.20;5.07;;;;;;;;;;6059853;23;20193;-93
2023/10/17 00:40:47;;;;;;;9.10;5.20;;;;;;;;;;6059654;23;20218;-92
2023/10/17 00:43:53;;;;;;;8.77;4.70;;;;;;;;;;6061692;23;20174;-92
2023/10/17 00:46:58;;;;;;;10.43;4.97;;;;;;;;;;6062013;23;20174;-91
2023/10/17 00:50:12;;;;;;;10.33;4.53;;;;;;;;;;6061808;23;20216;-92
2023/10/17 00:53:20;;;;;;;8.77;4.50;;;;;;;;;;6063012;23;20178;-90
2023/10/17 00:56:26;;;;;;;8.17;3.97;;;;;;;;;;6062698;23;20264;-90
2023/10/17 00:59:32;;;;;;;9.33;4.50;;;;;;;;;;6062254;23;20202;-91
2023/10/17 01:02:44;;;;;;;9.00;4.30;;;;;;;;;;6063036;23;20248;-91
2023/10/17 01:06:13;;;;;;;10.60;4.70;;;;;;;;;;6071523;23;20228;-89
2023/10/17 01:09:18;;;;;;;8.70;4.30;;;;;;;;;;6067992;23;20245;-90
2023/10/17 01:12:27;;;;;;;6.33;3.80;;;;;;;;;;6066374;23;20174;-90
2023/10/17 01:15:33;;;;;;;5.97;3.77;;;;;;;;;;6065343;23;20288;-90
2023/10/17 01:18:41;;;;;;;8.67;4.40;;;;;;;;;;6067137;23;20170;-88
2023/10/17 01:21:46;;;;;;;7.50;4.13;;;;;;;;;;6064652;23;20247;-91
2023/10/17 01:24:56;;;;;;;8.63;4.13;;;;;;;;;;6064496;23;20179;-92
2023/10/17 01:28:03;;;;;;;8.10;4.27;;;;;;;;;;6066365;23;20179;-91
2023/10/17 01:31:08;;;;;;;7.57;4.13;;;;;;;;;;6064493;23;20175;-91
2023/10/17 01:34:14;;;;;;;6.23;3.30;;;;;;;;;;6065579;23;20178;-91
2023/10/17 01:37:19;;;;;;;7.43;3.93;;;;;;;;;;6063702;23;20178;-91
2023/10/17 01:40:27;;;;;;;5.80;3.80;;;;;;;;;;6064045;23;20251;-93
2023/10/17 01:43:36;;;;;;;5.83;3.53;;;;;;;;;;6063200;23;20174;-91
2023/10/17 01:46:43;;;;;;;6.63;3.80;;;;;;;;;;6063496;23;20223;-90
2023/10/17 01:49:48;;;;;;;9.17;4.43;;;;;;;;;;6065276;23;20223;-90
2023/10/17 01:52:54;;;;;;;7.70;4.83;;;;;;;;;;6065764;23;20170;-89
2023/10/17 01:56:13;;;;;;;5.77;3.67;;;;;;;;;;6064011;23;20179;-91
2023/10/17 01:59:25;;;;;;;9.20;3.80;;;;;;;;;;6064560;23;20290;-91
2023/10/17 02:02:32;;;;;;;8.23;4.40;;;;;;;;;;6065378;23;20230;-91
2023/10/17 02:05:38;;;;;;;7.93;4.30;;;;;;;;;;6065362;23;20170;-88
2023/10/17 02:08:43;;;;;;;8.30;4.57;;;;;;;;;;6065123;23;20171;-91
2023/10/17 02:11:51;;;;;;;13.30;5.43;;;;;;;;;;6064740;23;20229;-89
2023/10/17 02:14:56;;;;;;;9.67;4.70;;;;;;;;;;6065799;23;20170;-93
2023/10/17 02:18:11;;;;;;;10.03;4.73;;;;;;;;;;6064628;23;20614;-89
2023/10/17 02:21:16;;;;;;;9.33;4.73;;;;;;;;;;6064207;23;20182;-91
2023/10/17 02:24:21;;;;;;;8.83;4.87;;;;;;;;;;6063853;23;20215;-90
2023/10/17 02:27:29;;;;;;;10.97;4.60;;;;;;;;;;6063250;23;20187;-89
2023/10/17 02:30:34;;;;;;;9.77;4.20;;;;;;;;;;6062869;23;20198;-91
2023/10/17 02:33:41;;;;;;;7.50;4.53;;;;;;;;;;6062358;23;20170;-89
2023/10/17 02:36:46;;;;;;;6.47;3.73;;;;;;;;;;6063400;23;20196;-90
2023/10/17 02:39:51;;;;;;;8.67;4.03;;;;;;;;;;6063388;23;20198;-90
2023/10/17 02:42:58;;;;;;;9.07;4.10;;;;;;;;;;6060047;23;20178;-90
2023/10/17 02:46:05;;;;;;;9.03;4.60;;;;;;;;;;6061638;23;20158;-91
2023/10/17 02:49:09;;;;;;;9.27;4.43;;;;;;;;;;6060650;23;20169;-91
2023/10/17 02:52:17;;;;;;;9.27;4.00;;;;;;;;;;6064552;23;20170;-91
2023/10/17 02:55:24;;;;;;;6.63;4.03;;;;;;;;;;6066354;23;20246;-91
2023/10/17 02:58:31;;;;;;;8.10;4.43;;;;;;;;;;6061442;23;20246;-89
2023/10/17 03:01:37;;;;;;;7.43;3.67;;;;;;;;;;6062308;23;20198;-90
2023/10/17 03:04:43;;;;;;;7.97;4.27;;;;;;;;;;6063698;23;20175;-90
2023/10/17 03:07:50;;;;;;;8.73;4.40;;;;;;;;;;6063205;23;20159;-90
2023/10/17 03:11:00;;;;;;;6.67;3.87;;;;;;;;;;6061908;23;20170;-90
2023/10/17 03:14:12;;;;;;;7.17;3.67;;;;;;;;;;6065795;23;20162;-90
2023/10/17 03:17:16;;;;;;;5.77;3.90;;;;;;;;;;6064703;23;20507;-90
2023/10/17 03:20:36;;;;;;;8.27;4.27;;;;;;;;;;6061539;23;20194;-92
2023/10/17 03:23:46;;;;;;;7.60;4.13;;;;;;;;;;6062371;23;20179;-90
2023/10/17 03:26:55;;;;;;;5.97;3.70;;;;;;;;;;6063653;23;20171;-91
2023/10/17 03:30:05;;;;;;;7.80;3.67;;;;;;;;;;6063194;23;20264;-92
2023/10/17 03:33:14;;;;;;;6.60;3.80;;;;;;;;;;6063951;23;20678;-90
2023/10/17 03:36:41;;;;;;;11.43;4.13;;;;;;;;;;6063977;23;20166;-90
2023/10/17 03:39:51;;;;;;;8.80;4.17;;;;;;;;;;6065739;23;20199;-90
2023/10/17 03:43:00;;;;;;;10.10;4.70;;;;;;;;;;6066375;23;20178;-91
2023/10/17 03:46:07;;;;;;;7.43;3.87;;;;;;;;;;6065964;23;20154;-91
2023/10/17 03:49:15;;;;;;;7.10;3.90;;;;;;;;;;6064519;23;20247;-89
2023/10/17 03:52:23;;;;;;;8.77;4.30;;;;;;;;;;6065086;23;20659;-90
2023/10/17 03:55:29;;;;;;;8.77;4.17;;;;;;;;;;6066115;23;20195;-91
2023/10/17 03:58:47;;;;;;;8.13;3.93;;;;;;;;;;6065640;23;20165;-91
2023/10/17 04:01:54;;;;;;;9.47;4.17;;;;;;;;;;6065387;23;20185;-90
2023/10/17 04:05:07;;;;;;;7.30;4.10;;;;;;;;;;6066815;23;20173;-91
2023/10/17 04:08:12;;;;;;;7.40;3.80;;;;;;;;;;6067611;23;20226;-91
2023/10/17 04:11:25;;;;;;;9.00;3.50;;;;;;;;;;6063813;23;20197;-90
2023/10/17 04:14:33;;;;;;;6.43;3.17;;;;;;;;;;6065049;23;20179;-89
2023/10/17 04:17:41;;;;;;;7.67;4.00;;;;;;;;;;6065934;23;20192;-90
2023/10/17 04:20:46;;;;;;;6.53;3.70;;;;;;;;;;6065680;23;20194;-91
2023/10/17 04:23:52;;;;;;;6.90;3.47;;;;;;;;;;6066561;23;20171;-90
2023/10/17 04:27:18;;;;;;;6.17;3.30;;;;;;;;;;6066032;23;20171;-89
2023/10/17 04:30:29;;;;;;;6.13;3.40;;;;;;;;;;6065839;23;20265;-91
2023/10/17 04:33:39;;;;;;;9.27;4.00;;;;;;;;;;6068738;23;20260;-91
2023/10/17 04:36:46;;;;;;;6.10;3.67;;;;;;;;;;6068209;23;20173;-91
2023/10/17 04:39:57;;;;;;;7.90;4.30;;;;;;;;;;6065456;23;20194;-90
2023/10/17 04:43:43;;;;;;;8.83;3.57;;;;;;;;;;6066567;23;20178;-90
2023/10/17 04:46:49;;;;;;;7.90;4.20;;;;;;;;;;6066128;23;20178;-90
2023/10/17 04:49:56;;;;;;;9.67;4.20;;;;;;;;;;6063737;23;20234;-91
2023/10/17 04:53:01;;;;;;;9.40;4.20;;;;;;;;;;6062705;23;20170;-90
2023/10/17 04:56:11;;;;;;;7.37;4.23;;;;;;;;;;6067805;23;20244;-91
2023/10/17 04:59:28;;;;;;;7.40;3.80;;;;;;;;;;6063429;23;20171;-88
2023/10/17 05:02:48;;;;;;;13.20;4.43;;;;;;;;;;6065580;23;20201;-91
2023/10/17 05:06:15;;;;;;;8.60;3.67;;;;;;;;;;6064089;23;20174;-88
2023/10/17 06:17:22;;;;;;;12.47;4.77;;;;;;;;;;6071020;23;20196;-93
2023/10/17 06:20:59;;;;;;;13.53;5.27;;;;;;;;;;6065582;23;20270;-91
2023/10/17 06:24:18;;;;;;;40.50;4.97;;;;;;;;;;6069613;23;20174;-90
2023/10/17 06:31:10;;;;;;;13.37;5.53;;;;;;;;;;6067940;23;20168;-92
2023/10/17 06:34:14;;;;;;;9.70;4.37;;;;;;;;;;6069987;23;20254;-91
2023/10/17 06:37:19;;;;;;;11.47;4.90;;;;;;;;;;6070238;23;20169;-90
2023/10/17 06:40:30;;;;;;;14.27;5.23;;;;;;;;;;6067371;23;20226;-91
2023/10/17 06:43:36;;;;;;;15.47;5.10;;;;;;;;;;6067780;23;20226;-92
2023/10/17 06:46:48;;;;;;;11.37;4.87;;;;;;;;;;6068352;23;20170;-91
2023/10/17 06:53:18;;;;;;;13.40;4.20;;;;;;;;;;6055688;23;20211;-90
2023/10/17 06:56:25;;;;;;;11.13;4.20;;;;;;;;;;6068733;23;20203;-90
2023/10/17 06:59:35;;;;;;;8.70;4.10;;;;;;;;;;6070730;23;20285;-94
2023/10/17 07:02:48;;;;;;;12.03;5.07;;;;;;;;;;6069859;23;20256;-87
2023/10/17 07:05:55;;;;;;;10.00;4.80;;;;;;;;;;6069964;23;20178;-91
2023/10/17 07:09:04;;;;;;;10.47;4.10;;;;;;;;;;6069316;23;20178;-91
2023/10/17 07:12:14;;;;;;;22.13;7.33;;;;;;;;;;6069397;23;20179;-88
2023/10/17 07:15:21;;;;;;;14.30;5.20;;;;;;;;;;6068779;23;20178;-91
2023/10/17 07:21:55;;;;;;;9.77;4.10;;;;;;;;;;6068724;23;20224;-90
2023/10/17 07:25:02;;;;;;;6.50;3.63;;;;;;;;;;6067770;23;20603;-90
2023/10/17 07:28:10;;;;;;;9.03;4.10;;;;;;;;;;6068408;23;20215;-91
2023/10/17 07:31:15;;;;;;;7.73;4.00;;;;;;;;;;6067505;23;20540;-89
2023/10/17 07:34:23;;;;;;;10.63;4.97;;;;;;;;;;6067503;23;20167;-90
2023/10/17 07:37:33;;;;;;;9.33;4.60;;;;;;;;;;6066286;23;20166;-89
2023/10/17 07:40:58;;;;;;;7.63;3.63;;;;;;;;;;6064348;23;20198;-89
2023/10/17 07:44:19;;;;;;;8.90;4.10;;;;;;;;;;6067462;23;20171;-91
2023/10/17 07:47:33;;;;;;;10.87;4.47;;;;;;;;;;6066462;23;20211;-89
2023/10/17 07:50:42;;;;;;;13.03;4.60;;;;;;;;;;6068601;23;20178;-92
2023/10/17 07:53:47;;;;;;;9.10;4.60;;;;;;;;;;6069349;23;20195;-90
2023/10/17 07:56:52;;;;;;;10.83;3.97;;;;;;;;;;6066524;23;20174;-90
2023/10/17 07:59:59;;;;;;;11.27;4.27;;;;;;;;;;6067513;23;20171;-91
2023/10/17 08:03:14;;;;;;;9.17;4.20;;;;;;;;;;6069023;23;20170;-88
2023/10/17 08:06:23;;;;;;;8.97;4.20;;;;;;;;;;6069355;23;20183;-89
2023/10/17 08:09:36;;;;;;;8.97;4.57;;;;;;;;;;6069342;23;20162;-89
2023/10/17 08:12:41;;;;;;;9.10;4.20;;;;;;;;;;6066734;23;20239;-90
2023/10/17 08:15:52;;;;;;;12.97;4.60;;;;;;;;;;6068654;23;20174;-92
2023/10/17 08:19:12;;;;;;;9.30;4.10;;;;;;;;;;6064788;23;20163;-90
2023/10/17 08:22:19;;;;;;;10.27;4.10;;;;;;;;;;6066632;23;20194;-91
2023/10/17 08:25:52;;;;;;;10.93;4.63;;;;;;;;;;6067651;23;20223;-90
2023/10/17 08:28:57;;;;;;;11.93;4.23;;;;;;;;;;6065670;23;20179;-91
2023/10/17 08:32:14;;;;;;;7.30;3.90;;;;;;;;;;6065588;23;20207;-92
2023/10/17 08:35:20;;;;;;;7.80;3.95;;;;;;;;;;6066098;23;20215;-91
2023/10/17 08:38:32;;;;;;;8.73;4.28;;;;;;;;;;6067300;23;20251;-92
2023/10/17 08:41:37;;;;;;;9.38;4.00;;;;;;;;;;6065794;23;20250;-90
2023/10/17 08:44:46;;;;;;;7.00;3.60;;;;;;;;;;6064858;23;20216;-90
2023/10/17 08:47:52;;;;;;;7.72;3.90;;;;;;;;;;6066832;23;20154;-90
2023/10/17 08:50:59;;;;;;;7.18;3.55;;;;;;;;;;6066121;23;20158;-87
2023/10/17 08:54:05;;;;;;;6.00;3.13;;;;;;;;;;6069923;23;20179;-90
2023/10/17 08:57:14;;;;;;;8.95;3.53;;;;;;;;;;6071152;23;20182;-92
2023/10/17 09:00:48;;;;;;;7.80;3.67;;;;;;;;;;6068579;23;20204;-89
2023/10/17 09:04:03;;;;;;;8.43;3.60;;;;;;;;;;6067885;23;20244;-91
2023/10/17 09:07:09;;;;;;;11.75;3.88;;;;;;;;;;6068856;23;20292;-92
2023/10/17 09:10:28;;;;;;;4.72;2.95;;;;;;;;;;6066121;23;20815;-95
2023/10/17 09:17:10;;;;;;;7.18;3.47;;;;;;;;;;6065437;23;20167;-91
2023/10/17 09:20:16;;;;;;;8.55;3.58;;;;;;;;;;6066643;23;20248;-93
2023/10/17 09:23:41;;;;;;;7.43;3.83;;;;;;;;;;6067917;23;20175;-90
2023/10/17 09:26:51;;;;;;;6.85;3.22;;;;;;;;;;6067526;23;20199;-90
2023/10/17 09:29:59;;;;;;;6.30;3.17;;;;;;;;;;6067764;23;20219;-92
2023/10/17 09:33:04;;;;;;;4.57;3.20;;;;;;;;;;6069621;23;20170;-92
2023/10/17 09:36:10;;;;;;;9.60;3.60;;;;;;;;;;6068501;23;20166;-90
2023/10/17 09:39:18;;;;;;;7.82;2.83;;;;;;;;;;6069023;23;20207;-93
2023/10/17 09:42:26;;;;;;;9.57;3.45;;;;;;;;;;6068330;23;20195;-89
2023/10/17 09:45:33;;;;;;;4.93;3.05;;;;;;;;;;6066019;23;20167;-90
2023/10/17 09:48:41;;;;;;;9.00;3.38;;;;;;;;;;6069157;23;20154;-94
2023/10/17 09:51:47;;;;;;;9.30;3.25;;;;;;;;;;6068974;23;20203;-90
2023/10/17 09:54:56;;;;;;;5.53;3.08;;;;;;;;;;6068529;23;20171;-90
2023/10/17 09:58:08;;;;;;;10.40;3.05;;;;;;;;;;6070614;23;20170;-90
2023/10/17 10:01:17;;;;;;;6.07;3.00;;;;;;;;;;6069080;23;20214;-89
2023/10/17 10:04:23;;;;;;;4.45;2.70;;;;;;;;;;6069439;23;20550;-92
2023/10/17 10:07:30;;;;;;;7.30;2.97;;;;;;;;;;6069057;23;20170;-90
2023/10/17 10:10:51;;;;;;;4.63;2.72;;;;;;;;;;6069294;23;20204;-91
2023/10/17 10:14:08;;;;;;;5.95;2.90;;;;;;;;;;6068037;23;20174;-93
2023/10/17 10:17:17;;;;;;;9.55;3.00;;;;;;;;;;6069901;23;20305;-91
2023/10/17 10:20:23;;;;;;;5.65;2.80;;;;;;;;;;6068203;23;20178;-93
2023/10/17 10:23:35;;;;;;;7.15;2.72;;;;;;;;;;6071058;23;20178;-90
2023/10/17 10:26:40;;;;;;;6.90;2.75;;;;;;;;;;6070403;23;20174;-93
2023/10/17 10:29:49;;;;;;;5.30;2.70;;;;;;;;;;6069359;23;20192;-92
2023/10/17 10:32:57;;;;;;;7.82;2.70;;;;;;;;;;6069001;23;20250;-92
2023/10/17 10:36:04;;;;;;;7.90;2.97;;;;;;;;;;6069859;23;20181;-92
2023/10/17 10:39:18;;;;;;;7.07;3.10;;;;;;;;;;6068382;23;20186;-91
2023/10/17 10:42:24;;;;;;;5.10;2.67;;;;;;;;;;6065440;23;20194;-90
2023/10/17 10:45:35;;;;;;;6.13;2.83;;;;;;;;;;6063825;23;20170;-90
2023/10/17 10:48:47;;;;;;;6.13;2.55;;;;;;;;;;6065678;23;20622;-90
2023/10/17 10:51:53;;;;;;;5.57;2.80;;;;;;;;;;6065042;23;20235;-90
2023/10/17 10:55:00;;;;;;;8.85;2.60;;;;;;;;;;6066681;23;20162;-92
2023/10/17 10:58:10;;;;;;;6.50;2.97;;;;;;;;;;6066276;23;20174;-91
2023/10/17 11:01:18;;;;;;;5.85;2.75;;;;;;;;;;6066217;23;20869;-89
2023/10/17 11:04:31;;;;;;;5.70;2.90;;;;;;;;;;6066301;23;20249;-90
2023/10/17 11:07:37;;;;;;;4.28;2.80;;;;;;;;;;6065943;23;20170;-87
2023/10/17 11:10:42;;;;;;;3.83;2.75;;;;;;;;;;6067354;23;20206;-91
2023/10/17 11:13:48;;;;;;;6.55;3.13;;;;;;;;;;6065204;23;20178;-94
2023/10/17 11:16:57;;;;;;;7.60;2.90;;;;;;;;;;6063589;23;20169;-91
2023/10/17 11:20:09;;;;;;;9.05;2.70;;;;;;;;;;6063723;23;20167;-93
2023/10/17 11:23:15;;;;;;;6.72;3.80;;;;;;;;;;6064592;23;20206;-91
2023/10/17 11:26:25;;;;;;;6.53;2.85;;;;;;;;;;6068004;23;20280;-92
2023/10/17 11:29:31;;;;;;;6.95;3.15;;;;;;;;;;6065856;23;20262;-91
2023/10/17 11:32:41;;;;;;;8.27;3.38;;;;;;;;;;6065714;23;20222;-93
2023/10/17 11:35:50;;;;;;;9.27;3.00;;;;;;;;;;6069361;23;20178;-94
2023/10/17 11:38:56;;;;;;;5.65;3.13;;;;;;;;;;6066294;23;20171;-89
2023/10/17 11:42:02;;;;;;;6.15;3.58;;;;;;;;;;6065763;23;20199;-91
2023/10/17 11:45:22;;;;;;;6.80;2.78;;;;;;;;;;6064052;23;20613;-91
2023/10/17 11:48:33;;;;;;;9.95;3.25;;;;;;;;;;6064380;23;20178;-91
2023/10/17 11:51:39;;;;;;;6.35;3.28;;;;;;;;;;6063624;23;20183;-92
2023/10/17 11:54:55;;;;;;;5.88;3.30;;;;;;;;;;6064705;23;20177;-92
2023/10/17 11:58:01;;;;;;;6.80;3.17;;;;;;;;;;6066652;23;20326;-93
2023/10/17 12:01:07;;;;;;;10.32;3.38;;;;;;;;;;6066166;23;20189;-91
2023/10/17 12:04:23;;;;;;;6.63;3.40;;;;;;;;;;6066521;23;20174;-91
2023/10/17 12:07:29;;;;;;;9.63;3.53;;;;;;;;;;6066409;23;20173;-89
2023/10/17 12:10:42;;;;;;;5.63;3.83;;;;;;;;;;6065722;23;20170;-93
2023/10/17 12:13:53;;;;;;;6.13;3.55;;;;;;;;;;6064203;23;20302;-92
2023/10/17 12:17:00;;;;;;;13.90;5.65;;;;;;;;;;6064322;23;20230;-88
2023/10/17 12:20:11;;;;;;;7.88;3.45;;;;;;;;;;6064566;23;20178;-90
2023/10/17 12:23:18;;;;;;;6.82;3.50;;;;;;;;;;6065234;23;20230;-89
2023/10/17 12:26:26;;;;;;;6.35;3.58;;;;;;;;;;6066048;23;20175;-89
2023/10/17 12:29:32;;;;;;;6.43;3.75;;;;;;;;;;6065489;23;20167;-91
2023/10/17 12:32:42;;;;;;;8.43;3.90;;;;;;;;;;6067412;23;20223;-91
2023/10/17 12:35:51;;;;;;;8.77;3.78;;;;;;;;;;6065779;23;20178;-89
2023/10/17 12:38:58;;;;;;;10.63;4.10;;;;;;;;;;6068591;23;20182;-89
2023/10/17 12:42:05;;;;;;;9.27;4.15;;;;;;;;;;6065193;23;20197;-91
2023/10/17 12:45:11;;;;;;;8.45;4.07;;;;;;;;;;6065632;23;20167;-90
2023/10/17 12:48:16;;;;;;;11.10;4.07;;;;;;;;;;6067830;23;20249;-91
2023/10/17 12:51:23;;;;;;;9.70;4.97;;;;;;;;;;6067140;23;20267;-91
2023/10/17 12:54:28;;;;;;;9.93;4.40;;;;;;;;;;6066269;23;20173;-92
2023/10/17 12:57:33;;;;;;;8.13;3.78;;;;;;;;;;6067038;23;20629;-93
2023/10/17 13:00:39;;;;;;;5.65;3.60;;;;;;;;;;6067935;23;20190;-91
2023/10/17 13:03:46;;;;;;;7.00;3.75;;;;;;;;;;6070402;23;20194;-92
2023/10/17 13:06:53;;;;;;;6.53;3.58;;;;;;;;;;6069434;23;20179;-90
2023/10/17 13:09:58;;;;;;;9.60;3.80;;;;;;;;;;6067466;23;20174;-90
2023/10/17 13:13:03;;;;;;;7.47;3.90;;;;;;;;;;6069995;23;20178;-95
2023/10/17 13:16:10;;;;;;;10.43;4.35;;;;;;;;;;6070800;23;20179;-91
2023/10/17 13:19:18;;;;;;;9.90;4.38;;;;;;;;;;6070787;23;20171;-90
2023/10/17 13:22:26;;;;;;;6.50;3.78;;;;;;;;;;6068780;23;20259;-92
2023/10/17 13:25:35;;;;;;;10.90;3.53;;;;;;;;;;6069709;23;20174;-90
2023/10/17 13:28:40;;;;;;;11.32;4.32;;;;;;;;;;6068846;23;20167;-93
2023/10/17 13:35:08;;;;;;;6.38;3.58;;;;;;;;;;6075009;23;20191;-90
2023/10/17 13:38:28;;;;;;;8.57;4.30;;;;;;;;;;6071187;23;20171;-93
2023/10/17 13:41:38;;;;;;;8.02;4.15;;;;;;;;;;6069686;23;20154;-91
2023/10/17 13:44:53;;;;;;;7.95;3.70;;;;;;;;;;6068303;23;20173;-91
2023/10/17 13:47:59;;;;;;;9.77;4.18;;;;;;;;;;6068938;23;20227;-92
2023/10/17 13:51:06;;;;;;;6.10;3.78;;;;;;;;;;6069610;23;20174;-91
2023/10/17 13:54:13;;;;;;;9.85;4.20;;;;;;;;;;6068801;23;20243;-90
2023/10/17 13:57:20;;;;;;;6.70;4.18;;;;;;;;;;6070164;23;20199;-93
2023/10/17 14:00:31;;;;;;;8.50;4.40;;;;;;;;;;6068982;23;20178;-92
2023/10/17 14:03:37;;;;;;;9.05;4.20;;;;;;;;;;6067855;23;20305;-91
2023/10/17 14:06:43;;;;;;;7.93;4.10;;;;;;;;;;6067768;23;20504;-90
2023/10/17 14:09:50;;;;;;;9.43;4.65;;;;;;;;;;6066808;23;20174;-90
2023/10/17 14:12:58;;;;;;;11.10;4.70;;;;;;;;;;6067665;23;20200;-91
2023/10/17 14:16:03;;;;;;;8.15;4.50;;;;;;;;;;6066270;23;20175;-93
2023/10/17 14:19:15;;;;;;;8.05;4.25;;;;;;;;;;6067608;23;20191;-92
2023/10/17 14:22:38;;;;;;;10.77;4.57;;;;;;;;;;6063925;23;20238;-90
2023/10/17 14:26:03;;;;;;;10.45;5.85;;;;;;;;;;6067106;23;20175;-92
2023/10/17 14:29:13;;;;;;;9.40;5.57;;;;;;;;;;6069116;23;20170;-93
2023/10/17 14:32:20;;;;;;;11.02;4.88;;;;;;;;;;6067112;23;20174;-91
2023/10/17 14:35:26;;;;;;;9.15;4.60;;;;;;;;;;6070206;23;20174;-91
2023/10/17 14:38:34;;;;;;;13.40;4.90;;;;;;;;;;6069926;23;20223;-91
2023/10/17 14:41:40;;;;;;;12.27;5.30;;;;;;;;;;6067877;23;20583;-93
2023/10/17 14:44:52;;;;;;;10.45;5.10;;;;;;;;;;6068773;23;20175;-92
2023/10/17 14:47:58;;;;;;;13.30;5.43;;;;;;;;;;6068182;23;20227;-94
2023/10/17 14:51:03;;;;;;;10.07;4.93;;;;;;;;;;6063934;23;20195;-89
2023/10/17 14:54:09;;;;;;;9.82;5.20;;;;;;;;;;6065824;23;20171;-93
2023/10/17 14:57:16;;;;;;;9.48;4.72;;;;;;;;;;6066433;23;20188;-94
2023/10/17 15:00:24;;;;;;;12.40;4.75;;;;;;;;;;6066965;23;20599;-92
2023/10/17 15:03:30;;;;;;;11.30;5.35;;;;;;;;;;6069426;23;20194;-92
2023/10/17 15:06:36;;;;;;;10.20;5.50;;;;;;;;;;6068267;23;20223;-90
2023/10/17 15:09:42;;;;;;;14.35;6.10;;;;;;;;;;6071329;23;20218;-92
2023/10/17 15:12:48;;;;;;;9.82;5.05;;;;;;;;;;6071285;23;20178;-92
2023/10/17 15:15:57;;;;;;;8.43;5.07;;;;;;;;;;6069535;23;20196;-92
2023/10/17 15:19:02;;;;;;;8.00;4.78;;;;;;;;;;6067849;23;20174;-92
2023/10/17 15:22:07;;;;;;;12.32;5.63;;;;;;;;;;6069003;23;20258;-90
2023/10/17 15:25:13;;;;;;;11.32;4.65;;;;;;;;;;6067487;23;20262;-95
2023/10/17 15:28:19;;;;;;;11.38;5.90;;;;;;;;;;6068771;23;20171;-93
2023/10/17 15:31:27;;;;;;;12.23;5.88;;;;;;;;;;6067740;23;20210;-91
2023/10/17 15:34:33;;;;;;;15.18;7.53;;;;;;;;;;6069007;23;20215;-90
2023/10/17 15:37:40;;;;;;;15.07;7.40;;;;;;;;;;6069264;23;20231;-90
2023/10/17 15:40:50;;;;;;;11.98;7.18;;;;;;;;;;6068654;23;20174;-94
2023/10/17 15:43:57;;;;;;;22.27;10.07;;;;;;;;;;6068231;23;20199;-90
2023/10/17 15:47:04;;;;;;;15.55;6.63;;;;;;;;;;6068346;23;20186;-92
2023/10/17 15:50:13;;;;;;;14.23;6.07;;;;;;;;;;6067962;23;20171;-91
2023/10/17 15:53:18;;;;;;;8.88;5.10;;;;;;;;;;6067986;23;20174;-92
2023/10/17 15:56:28;;;;;;;13.45;6.35;;;;;;;;;;6068539;23;20247;-92
2023/10/17 15:59:34;;;;;;;15.45;6.28;;;;;;;;;;6070496;23;20196;-92
2023/10/17 16:19:33;;;;;;;16.55;6.10;;;;;;;;;;6067284;23;20158;-92
2023/10/17 16:22:39;;;;;;;19.27;7.63;;;;;;;;;;6070204;23;20194;-90
2023/10/17 16:25:48;;;;;;;45.50;17.15;;;;;;;;;;6038536;23;20635;-92
2023/10/17 16:28:54;;;;;;;29.30;11.93;;;;;;;;;;6038589;23;20208;-92
2023/10/17 16:32:02;;;;;;;18.52;8.00;;;;;;;;;;6039364;23;20223;-94
2023/10/17 16:35:16;;;;;;;29.42;11.77;;;;;;;;;;6039527;23;20167;-93
2023/10/17 16:38:22;;;;;;;15.18;6.70;;;;;;;;;;6039576;23;20247;-91
2023/10/17 16:41:28;;;;;;;14.05;6.18;;;;;;;;;;6039669;23;20170;-91
2023/10/17 16:44:37;;;;;;;10.43;5.20;;;;;;;;;;6040378;23;20202;-92
2023/10/17 16:47:44;;;;;;;11.60;4.90;;;;;;;;;;6039289;23;20175;-92
2023/10/17 16:50:53;;;;;;;7.55;4.25;;;;;;;;;;6041461;23;20182;-91
2023/10/17 16:53:58;;;;;;;13.10;5.97;;;;;;;;;;6039212;23;20237;-91
2023/10/17 16:57:05;;;;;;;18.35;7.78;;;;;;;;;;6041267;23;20248;-92
2023/10/17 17:00:13;;;;;;;11.18;5.22;;;;;;;;;;6036951;23;20170;-92
2023/10/17 17:03:20;;;;;;;13.68;5.68;;;;;;;;;;6040797;23;20666;-92
2023/10/17 17:06:27;;;;;;;15.77;5.60;;;;;;;;;;6035469;23;20208;-93
2023/10/17 17:09:36;;;;;;;15.60;6.82;;;;;;;;;;6036020;23;20228;-93
2023/10/17 17:12:45;;;;;;;21.20;9.80;;;;;;;;;;6039989;23;20184;-90
2023/10/17 17:15:51;;;;;;;27.23;13.07;;;;;;;;;;6038065;23;20183;-92
2023/10/17 17:18:56;;;;;;;51.13;17.05;;;;;;;;;;6054690;23;20200;-90
2023/10/17 17:22:03;;;;;;;22.35;8.27;;;;;;;;;;6039049;23;20234;-92
2023/10/17 17:28:30;;;;;;;18.65;8.15;;;;;;;;;;6080952;23;20222;-93
2023/10/17 17:31:36;;;;;;;12.52;6.68;;;;;;;;;;6082278;23;20175;-90
2023/10/17 17:34:41;;;;;;;17.23;7.57;;;;;;;;;;6068101;23;20174;-90
2023/10/17 17:37:48;;;;;;;18.92;5.93;;;;;;;;;;6065842;23;20170;-93
2023/10/17 17:40:53;;;;;;;18.55;8.95;;;;;;;;;;6065406;23;20512;-91
2023/10/17 17:43:58;;;;;;;24.90;12.13;;;;;;;;;;6065127;23;20193;-93
2023/10/17 17:47:05;;;;;;;20.70;9.07;;;;;;;;;;6083217;23;20307;-94
2023/10/17 17:50:11;;;;;;;28.92;10.68;;;;;;;;;;6067150;23;20174;-92
2023/10/17 17:53:19;;;;;;;27.27;10.77;;;;;;;;;;6066845;23;20215;-89
2023/10/17 17:56:24;;;;;;;24.55;10.60;;;;;;;;;;6084189;23;20178;-92
2023/10/17 17:59:29;;;;;;;22.88;9.40;;;;;;;;;;6081208;23;20175;-92
2023/10/17 18:02:34;;;;;;;29.07;10.37;;;;;;;;;;6065664;23;20174;-93
2023/10/17 18:05:39;;;;;;;26.97;10.00;;;;;;;;;;6082920;23;20174;-94
2023/10/17 18:08:48;;;;;;;22.47;8.87;;;;;;;;;;6064026;23;20178;-92
2023/10/17 18:11:53;;;;;;;19.90;7.83;;;;;;;;;;6065836;23;20219;-90
2023/10/17 18:14:59;;;;;;;24.90;9.97;;;;;;;;;;6065257;23;20252;-92
2023/10/17 18:18:10;;;;;;;21.87;8.73;;;;;;;;;;6065647;23;20476;-92
2023/10/17 18:21:17;;;;;;;26.07;10.37;;;;;;;;;;6066687;23;20250;-92
2023/10/17 18:24:24;;;;;;;17.93;8.67;;;;;;;;;;6082809;23;20198;-92
2023/10/17 18:27:30;;;;;;;25.33;10.63;;;;;;;;;;6067595;23;20151;-92
2023/10/17 18:30:36;;;;;;;25.03;9.73;;;;;;;;;;6085860;23;20181;-90
2023/10/17 18:33:42;;;;;;;22.07;8.00;;;;;;;;;;6070098;23;20194;-90
2023/10/17 18:36:48;;;;;;;23.13;10.17;;;;;;;;;;6068777;23;20623;-92
2023/10/17 18:39:55;;;;;;;19.73;9.07;;;;;;;;;;6086002;23;20180;-91
2023/10/17 18:43:01;;;;;;;16.97;8.40;;;;;;;;;;6069365;23;20158;-94
2023/10/17 18:46:08;;;;;;;18.63;8.87;;;;;;;;;;6069631;23;20170;-92
2023/10/17 18:49:14;;;;;;;19.17;7.43;;;;;;;;;;6086954;23;20223;-92
2023/10/17 18:52:19;;;;;;;14.60;7.30;;;;;;;;;;6070958;23;20183;-91
2023/10/17 18:55:26;;;;;;;17.43;6.87;;;;;;;;;;6069388;23;20364;-92
2023/10/17 18:58:34;;;;;;;18.40;8.20;;;;;;;;;;6068013;23;20159;-92
2023/10/17 19:01:40;;;;;;;22.60;10.73;;;;;;;;;;6067506;23;21143;-91
2023/10/17 19:04:45;;;;;;;20.57;10.00;;;;;;;;;;6083317;23;20223;-92
2023/10/17 19:07:50;;;;;;;19.63;9.13;;;;;;;;;;6085351;23;20170;-92
2023/10/17 19:10:59;;;;;;;17.43;8.13;;;;;;;;;;6068578;23;20271;-91
2023/10/17 19:14:05;;;;;;;27.57;12.30;;;;;;;;;;6068716;23;20174;-90
2023/10/17 19:17:12;;;;;;;15.67;8.03;;;;;;;;;;6082696;23;20173;-90
2023/10/17 19:20:17;;;;;;;14.60;7.10;;;;;;;;;;6066978;23;20153;-92
2023/10/17 19:23:23;;;;;;;28.20;12.00;;;;;;;;;;6065040;23;20207;-93
2023/10/17 19:26:31;;;;;;;21.47;9.20;;;;;;;;;;6078948;23;20178;-90
2023/10/17 19:29:36;;;;;;;21.90;9.67;;;;;;;;;;6064578;23;20576;-92
2023/10/17 19:32:41;;;;;;;17.97;8.87;;;;;;;;;;6067821;23;20234;-92
2023/10/17 19:35:47;;;;;;;15.67;6.80;;;;;;;;;;6067821;23;20174;-92
2023/10/17 19:38:53;;;;;;;25.30;10.83;;;;;;;;;;6066492;23;20285;-92
2023/10/17 19:42:04;;;;;;;15.27;6.57;;;;;;;;;;6067018;23;20174;-92
2023/10/17 19:45:10;;;;;;;19.90;8.27;;;;;;;;;;6068675;23;20266;-93
2023/10/17 19:48:16;;;;;;;30.47;10.73;;;;;;;;;;6068586;23;20223;-92
2023/10/17 19:51:21;;;;;;;31.37;11.73;;;;;;;;;;6083491;23;20170;-92
2023/10/17 19:54:28;;;;;;;22.43;10.00;;;;;;;;;;6067416;23;20175;-94
2023/10/17 19:57:34;;;;;;;20.23;9.00;;;;;;;;;;6082092;23;20165;-93
2023/10/17 20:00:41;;;;;;;20.93;8.37;;;;;;;;;;6064096;23;20175;-94
2023/10/17 20:03:47;;;;;;;18.30;8.57;;;;;;;;;;6081127;23;20193;-93
2023/10/17 20:06:53;;;;;;;15.10;8.00;;;;;;;;;;6065768;23;20248;-92
2023/10/17 20:09:59;;;;;;;21.60;8.73;;;;;;;;;;6065160;23;20215;-92
2023/10/17 20:13:06;;;;;;;14.47;7.17;;;;;;;;;;6067470;23;20158;-93
2023/10/17 20:16:11;;;;;;;25.47;10.53;;;;;;;;;;6064348;23;20166;-92
2023/10/17 20:19:18;;;;;;;20.00;8.40;;;;;;;;;;6081281;23;20278;-90
2023/10/17 20:22:24;;;;;;;24.23;10.03;;;;;;;;;;6066282;23;20175;-90
2023/10/17 20:25:29;;;;;;;13.30;7.30;;;;;;;;;;6068378;23;20201;-91
2023/10/17 20:28:37;;;;;;;19.33;7.93;;;;;;;;;;6085087;23;20223;-92